Friday, August 18, 2017, 5:54 PM EDT
Back to Local

KMHT, Manchester Airport

Location: Manchester, NH, United States Lat: 42.933
Local Time: 5:54 PM EDT (21:54 GMT) Lon: -71.433
Time Zone: US/Eastern Elev: 232 ft

Show me the last for .
Show Decoded

2017-08-18 16:53 METAR KMHT 182053Z 08003KT 9SM -RA BKN005 OVC022 22/19 A2981 RMK AO2 SLP103
                 P0001 60041 T02170194 58017 =
2017-08-18 15:53 METAR KMHT 181953Z 05003KT 8SM -RA BKN005 BKN038 OVC090 22/19 A2982 RMK AO2
                 SLP111 P0001 T02170194 =
2017-08-18 15:18 METAR KMHT 181918Z 06003KT 6SM -RA BR BKN005 OVC032 22/20 A2983 RMK AO2 P0000
                 T02170200 =
2017-08-18 14:58 METAR KMHT 181858Z 07003KT 7SM -RA SCT004 OVC033 21/19 A2984 RMK AO2 P0000
                 T02110194 =
2017-08-18 14:53 METAR KMHT 181853Z 07004KT 1 1/4SM -RA BR SCT005 OVC030 21/19 A2984 RMK AO2 SFC
                 VIS 6 SLP116 P0039 T02110194 =
2017-08-18 14:39 METAR KMHT 181839Z 36006KT 1 1/4SM -RA BR BKN004 OVC030 21/19 A2985 RMK AO2 SFC
                 VIS 4 P0038 T02110194 =
2017-08-18 14:28 METAR KMHT 181828Z 00000KT 1 1/4SM +RA BR SCT007 BKN030 OVC045 21/19 A2985 RMK
                 AO2 SFC VIS 1 3/4 P0036 T02110194 =
2017-08-18 13:53 METAR KMHT 181753Z 00000KT 1 1/4SM +RA BR BKN007 BKN020 OVC045 21/19 A2986 RMK
                 AO2 SLP120 P0027 60092 T02110194 10211 20194 58013 =
2017-08-18 13:17 METAR KMHT 181717Z 09003KT 1 1/4SM -RA BR BKN007 BKN021 OVC045 21/19 A2986 RMK
                 AO2 SFC VIS 1 3/4 P0010 T02110189 =
2017-08-18 13:07 METAR KMHT 181707Z 14004KT 1 1/4SM +RA BR SCT009 BKN028 OVC045 21/19 A2987 RMK
                 AO2 VIS 1/2V5 P0006 T02110194 =
2017-08-18 13:04 METAR KMHT 181704Z 00000KT 2SM -RA BR FEW009 BKN045 OVC050 21/19 A2986 RMK AO2
                 VIS 1/2V5 P0004 T02110189 =
2017-08-18 12:53 METAR KMHT 181653Z 12005KT 7SM -RA FEW012 BKN043 OVC050 21/19 A2986 RMK AO2
                 SLP124 P0011 T02060189 =
2017-08-18 12:33 METAR KMHT 181633Z 14007KT 5SM -RA BR FEW006 BKN049 21/19 A2988 RMK AO2 P0010
                 T02060189 =
2017-08-18 12:25 METAR KMHT 181625Z 13007KT 2 1/2SM -RA BR SCT006 OVC047 21/19 A2988 RMK AO2 TWR
                 VIS 3 P0010 T02060189 =
2017-08-18 12:17 METAR KMHT 181617Z 14006KT 1 3/4SM +RA BR BKN006 BKN031 OVC047 21/18 A2988 RMK
                 AO2 TWR VIS 3 P0008 T02060183 =
2017-08-18 12:04 METAR KMHT 181604Z 15006KT 3SM -RA BR BKN006 OVC012 20/18 A2989 RMK AO2 SFC VIS
                 3 P0002 T02000183 =
2017-08-18 11:53 METAR KMHT 181553Z 13006KT 1 1/4SM +RA BR BKN006 BKN012 OVC038 20/18 A2989 RMK
                 AO2 TWR VIS 2 SLP133 P0041 T02000183 =
2017-08-18 11:22 METAR KMHT 181522Z 14004KT 1 1/4SM +RA BR BKN008 OVC014 19/18 A2990 RMK AO2 TWR
                 VIS 3 CIG 005V011 P0018 T01940178 =
2017-08-18 11:10 METAR KMHT 181510Z 14005KT 1 3/4SM +RA BR OVC010 19/18 A2989 RMK AO2 TWR VIS 3
                 CIG 007V013 P0009 T01940178 =
2017-08-18 11:04 METAR KMHT 181504Z 13004KT 2SM -RA BR OVC010 19/18 A2990 RMK AO2 TWR VIS 3 CIG
                 007V013 P0005 T01940178 =
2017-08-18 10:53 METAR KMHT 181453Z 14003KT 1 3/4SM +RA BR OVC012 19/18 A2990 RMK AO2 TWR VIS 3
                 SLP133 P0011 60013 T01940178 56008 =
2017-08-18 10:47 METAR KMHT 181447Z 14005KT 3SM -RA BR OVC012 19/17 A2989 RMK AO2 SFC VIS 5 P0006
                 =
2017-08-18 10:15 METAR KMHT 181415Z 13006KT 2SM -RA BKN014 OVC026 19/17 A2989 RMK AO2 SFC VIS 3
                 P0002 T01940167 =
2017-08-18 10:08 METAR KMHT 181408Z 13006KT 5SM -RA BKN014 BKN024 OVC031 19/17 A2990 RMK AO2
                 P0001 T01940167 =
2017-08-18 09:53 METAR KMHT 181353Z 15007KT 5SM -RA FEW012 BKN028 OVC036 19/17 A2990 RMK AO2
                 RAB37 SLP135 P0002 T01940167 =
2017-08-18 09:35 METAR KMHT 181335Z 14007KT 10SM SCT012 BKN037 OVC044 20/16 A2990 RMK AO2
                 T02000161 =
2017-08-18 08:53 METAR KMHT 181253Z 12007KT 10SM OVC012 19/16 A2992 RMK AO2 RAB21E40 SLP142 P0000
                 T01940156 =
2017-08-18 08:37 METAR KMHT 181237Z 16004KT 10SM -RA BKN012 OVC055 19/16 A2993 RMK AO2 RAB21
                 P0000 T01940161 =
2017-08-18 07:53 METAR KMHT 181153Z 14005KT 10SM OVC055 19/14 A2994 RMK AO2 SLP150 60000
                 T01940139 10194 20172 51004 =
2017-08-18 06:53 METAR KMHT 181053Z 14003KT 10SM OVC055 18/13 A2994 RMK AO2 RAB26E36 SLP148 P0000
                 T01830133 =
2017-08-18 05:53 METAR KMHT 180953Z 00000KT 10SM OVC048 18/13 A2994 RMK AO2 SLP149 T01830133 =
2017-08-18 04:53 METAR KMHT 180853Z 05003KT 10SM BKN055 OVC130 18/13 A2993 RMK AO2 SLP145
                 T01830128 58015 =
2017-08-18 03:53 METAR KMHT 180753Z 20003KT 10SM SCT055 OVC130 17/14 A2995 RMK AO2 SLP152
                 T01720139 =
2017-08-18 02:53 METAR KMHT 180653Z 00000KT 10SM SCT130 OVC200 18/13 A2996 RMK AO2 SLP155
                 T01780128 =
2017-08-18 01:53 METAR KMHT 180553Z 00000KT 10SM SCT130 OVC200 19/14 A2998 RMK AO2 SLP160
                 T01890139 10239 20178 58003 =
2017-08-18 00:53 METAR KMHT 180453Z 19003KT 10SM SCT130 OVC250 18/13 A2998 RMK AO2 SLP164
                 T01830133 402780117 =
2017-08-17 23:53 METAR KMHT 180353Z 00000KT 10SM OVC250 19/14 A2998 RMK AO2 SLP164 T01890139 =
2017-08-17 22:53 METAR KMHT 180253Z 00000KT 10SM BKN250 20/13 A2999 RMK AO2 SLP165 T02000128
                 51008 =
2017-08-17 21:53 METAR KMHT 180153Z 15003KT 10SM BKN250 21/13 A2998 RMK AO2 SLP162 T02060128 =
2017-08-17 20:53 METAR KMHT 180053Z 00000KT 10SM BKN250 22/12 A2997 RMK AO2 SLP160 T02220117 =
2017-08-17 19:53 METAR KMHT 172353Z 16004KT 10SM FEW060 BKN250 24/12 A2996 RMK AO2 SLP157
                 T02390117 10278 20239 53004 =
2017-08-17 18:53 METAR KMHT 172253Z 24004KT 10SM FEW060 BKN250 26/10 A2995 RMK AO2 SLP154
                 T02610100 =

Support USWX by starting your Amazon purchase here.